x

Newport, Or (nwpo3) Weather Station

4:00am - Sun 21st Dec 2014 All times are PST. -8 hours from GMT.

  • Wind
    15mph, 16mph gusts
  • Air Temp 56°f
  • Sea Pressure 1015.4mb
  • Newport, Or
  • Newport, Or

More Historic Weather Station data

Upgrade to MSW Pro to gain access to the past 30 days of data for over 8000 Wavebouys and Weather Stations around the globe.

Join Pro

Comparision Forecast

View Surf forecast
   
Sun 12/21 4:00am 15 16 mph 1015.4mb 56f
3:00am 17 22 mph 1015mb 57f
2:00am 23 26 mph 1014.2mb 57f
1:00am 25 31 mph 1013.3mb 56f
12:00am 26 31 mph 1011.8mb 57f
Sat 12/20 11:00pm 26 31 mph 1010.4mb 57f
10:00pm 29 33 mph 1009.8mb 57f
9:00pm 28 33 mph 1009.2mb 57f
8:00pm 31 36 mph 1008.2mb 57f
7:00pm 29 36 mph 1007.9mb 57f
6:00pm 30 34 mph 1007.7mb 56f
5:00pm 28 32 mph 1007mb 56f
4:00pm 28 30 mph 1006.5mb 57f
3:00pm 29 33 mph 1005.9mb 57f
2:00pm 29 34 mph 1005.6mb 56f
1:00pm 30 36 mph 1005.3mb 56f
12:00pm 26 31 mph 1005.9mb 56f
11:00am 31 37 mph 1006.1mb 56f
10:00am 34 43 mph 1004.9mb 55f
9:00am 39 46 mph 1004.6mb 55f
8:00am 36 41 mph 1005.4mb 55f
7:00am 38 43 mph 1005.1mb 55f
6:00am 34 43 mph 1005.6mb 54f
5:00am 36 46 mph 1006mb 54f
4:00am 36 45 mph 1006.9mb 54f
3:00am 36 45 mph 1007.9mb 54f
2:00am 28 33 mph 1009.7mb 53f
1:00am 32 39 mph 1010.3mb 54f
12:00am 9 11 mph 1010.9mb 49f
Fri 12/19 11:00pm 15 18 mph 1012mb 50f
10:00pm 16 21 mph 1012.2mb 50f
9:00pm 13 17 mph 1012.8mb 50f
8:00pm 7 8 mph 1013.5mb 49f
7:00pm 8 10 mph 1014.2mb 49f
6:00pm 5 6 mph 1014.1mb 48f
5:00pm 6
mph
1014.6mb 49f
4:00pm 8 10 mph 1014.6mb 50f
3:00pm 6 7 mph 1014.9mb 52f
2:00pm 5 9 mph 1014.9mb 51f
1:00pm 6 8 mph 1015.9mb 49f
12:00pm 11 13 mph 1016.2mb 50f
11:00am 8 11 mph 1015.8mb 51f
10:00am 7 10 mph 1015.5mb 49f
9:00am 6
mph
1014.9mb 46f
8:00am 7 8 mph 1014.2mb 45f
7:00am 6 7 mph 1013.9mb 45f
6:00am 5 7 mph 1013.3mb 45f
5:00am 8 9 mph 1012.6mb 48f
4:00am 7 8 mph 1012.5mb 47f
3:00am 32 38 mph 1013mb 50f
2:00am 11 17 mph 1011.7mb 49f
1:00am 10 14 mph 1011.5mb 49f
12:00am 9 13 mph 1011.4mb 48f
Thu 12/18 11:00pm 7 9 mph 1011.2mb 49f
10:00pm 17 20 mph 1011.3mb 51f
9:00pm 21 25 mph 1010.3mb 51f
8:00pm 16 21 mph 1009.4mb 52f
7:00pm 10 15 mph 1007.6mb 52f
6:00pm 13 17 mph 1008.3mb 52f
5:00pm 17 22 mph 1008.5mb 52f
4:00pm 31 38 mph 1009.2mb 54f
3:00pm 21 26 mph 1009.3mb 55f
2:00pm 23 28 mph 1009.7mb 56f
1:00pm 26 31 mph 1010.3mb 56f
12:00pm 33 40 mph 1010.9mb 56f
11:00am 15 18 mph 1011.8mb 55f
10:00am 13 18 mph 1012.6mb 53f
9:00am 10 15 mph 1012.7mb 52f
8:00am 7 9 mph 1012.4mb 51f
7:00am 8 9 mph 1012.3mb 49f
6:00am 7 8 mph 1012.3mb 48f
5:00am 8 11 mph 1012.6mb 47f
4:00am 5 6 mph 1013.7mb 47f
3:00am 2 3 mph 1013.9mb 47f
2:00am 7 10 mph 1013.4mb 47f
1:00am 3 5 mph 1014.3mb 47f
12:00am 5 7 mph 1014.5mb 47f
Wed 12/17 11:00pm 6 7 mph 1014.8mb 47f
10:00pm 5 6 mph 1014.7mb 47f
9:00pm 8 9 mph 1014.5mb 48f
8:00pm 7 9 mph 1014.3mb 48f
7:00pm 8 10 mph 1014mb 48f
6:00pm 13 15 mph 1013.3mb 52f
5:00pm 15 18 mph 1012.4mb 53f
4:00pm 21 25 mph 1011.3mb 53f
3:00pm 28 30 mph 1009.9mb 53f
2:00pm 22 28 mph 1008.8mb 53f